Time;durP1;ratioP1;P1;durP2;ratioP2;P2;SDS_P1;SDS_P2;PMS_P1;PMS_P2;Temp;Humidity;BMP_temperature;BMP_pressure;BME280_temperature;BME280_humidity;BME280_pressure;Samples;Min_cycle;Max_cycle;Signal;HPM_P1;HPM_P2
2022/03/29 00:02:04;;;;;;;25.63;12.30;;;;;;;8.10;87.12;99145.38;5018776;28;20081;-95
2022/03/29 00:04:30;;;;;;;23.58;11.45;;;;;;;7.99;87.48;99142.84;5018855;28;20042;-95
2022/03/29 00:06:56;;;;;;;23.92;12.45;;;;;;;8.07;87.70;99158.69;5018868;28;20137;-96
2022/03/29 00:09:22;;;;;;;26.67;11.27;;;;;;;7.90;87.51;99142.97;5018442;28;20050;-96
2022/03/29 00:11:50;;;;;;;26.05;12.32;;;;;;;7.94;86.92;99157.06;5019111;28;20041;-95
2022/03/29 00:14:16;;;;;;;26.15;12.35;;;;;;;7.85;88.63;99152.75;5018102;28;20518;-95
2022/03/29 00:16:42;;;;;;;26.75;11.73;;;;;;;7.72;88.91;99154.63;5019581;28;20041;-96
2022/03/29 00:19:08;;;;;;;24.67;11.93;;;;;;;7.77;88.39;99160.72;5018345;28;20038;-95
2022/03/29 00:21:34;;;;;;;24.40;12.63;;;;;;;7.58;88.40;99141.50;5018836;28;20046;-96
2022/03/29 00:24:00;;;;;;;27.25;11.60;;;;;;;7.55;89.24;99144.19;5019071;28;20107;-94
2022/03/29 00:26:26;;;;;;;25.55;12.27;;;;;;;7.55;89.45;99148.59;5018639;28;20053;-95
2022/03/29 00:28:54;;;;;;;22.83;12.30;;;;;;;7.60;91.08;99158.25;5019050;28;20042;-95
2022/03/29 00:31:20;;;;;;;23.00;11.30;;;;;;;7.73;90.64;99176.66;5018594;28;20458;-95
2022/03/29 00:33:47;;;;;;;23.45;12.45;;;;;;;7.75;90.78;99162.53;5018769;28;20051;-95
2022/03/29 00:36:13;;;;;;;23.05;12.55;;;;;;;7.81;90.02;99158.94;5018066;28;20081;-96
2022/03/29 00:38:39;;;;;;;23.38;11.80;;;;;;;7.97;90.47;99179.06;5017183;28;20057;-96
2022/03/29 00:41:05;;;;;;;25.63;12.40;;;;;;;7.88;90.04;99138.59;5017685;28;20050;-95
2022/03/29 00:43:30;;;;;;;23.30;11.60;;;;;;;7.93;89.23;99132.31;5017190;28;20053;-95
2022/03/29 00:45:58;;;;;;;21.02;11.32;;;;;;;7.98;88.85;99146.41;5017948;28;20446;-95
2022/03/29 00:48:24;;;;;;;22.13;10.95;;;;;;;8.09;88.63;99163.94;5017551;28;20041;-96
2022/03/29 00:50:51;;;;;;;25.38;11.93;;;;;;;7.96;88.74;99147.34;5017705;28;20173;-94
2022/03/29 00:53:18;;;;;;;25.20;11.18;;;;;;;7.93;88.75;99140.28;5018664;28;20072;-94
2022/03/29 00:55:44;;;;;;;20.00;11.27;;;;;;;7.94;89.28;99131.44;5017102;28;20073;-95
2022/03/29 00:58:12;;;;;;;24.83;11.27;;;;;;;7.98;88.87;99142.88;5017345;28;20506;-94
2022/03/29 01:00:38;;;;;;;21.75;11.20;;;;;;;8.01;88.44;99151.66;5017132;28;20065;-95
2022/03/29 01:03:05;;;;;;;19.58;10.98;;;;;;;7.86;88.51;99127.13;5017032;28;20041;-95
2022/03/29 01:05:31;;;;;;;21.67;10.27;;;;;;;7.86;88.20;99135.94;5017044;28;20045;-95
2022/03/29 01:07:59;;;;;;;24.60;10.82;;;;;;;7.89;89.43;99146.47;5017109;28;20048;-95
2022/03/29 01:10:25;;;;;;;24.50;11.07;;;;;;;7.76;88.21;99118.38;5017247;28;20042;-94
2022/03/29 01:12:51;;;;;;;23.05;10.75;;;;;;;7.75;89.06;99127.22;5017420;28;20084;-96
2022/03/29 01:15:19;;;;;;;22.25;11.38;;;;;;;7.74;89.60;99121.06;5017440;28;20046;-94
2022/03/29 01:17:46;;;;;;;19.23;10.27;;;;;;;7.74;89.19;99121.06;5017779;28;20053;-96
2022/03/29 01:20:17;;;;;;;18.20;10.05;;;;;;;7.69;88.94;99119.34;5017916;28;20476;-95
2022/03/29 01:22:48;;;;;;;18.85;10.50;;;;;;;7.63;87.78;99130.84;5016306;28;20117;-96
2022/03/29 01:25:16;;;;;;;18.15;9.82;;;;;;;7.44;88.48;99123.97;5017268;28;20133;-96
2022/03/29 01:27:44;;;;;;;21.48;9.57;;;;;;;7.57;88.41;99158.28;5017560;28;20046;-96
2022/03/29 01:30:11;;;;;;;20.00;9.27;;;;;;;7.30;90.10;99122.34;5018471;28;20050;-96
2022/03/29 01:32:39;;;;;;;18.33;9.98;;;;;;;7.16;90.23;99111.00;5018479;28;20057;-95
2022/03/29 01:35:06;;;;;;;19.10;9.70;;;;;;;7.11;90.51;99107.50;5017646;28;20057;-95
2022/03/29 01:37:33;;;;;;;15.68;9.38;;;;;;;7.20;90.45;99129.47;5017057;28;20108;-95
2022/03/29 01:40:04;;;;;;;19.60;11.43;;;;;;;6.90;92.41;99103.25;5016569;28;20057;-95
2022/03/29 01:42:30;;;;;;;19.25;9.73;;;;;;;6.78;92.43;99091.84;5016832;28;20050;-96
2022/03/29 01:44:56;;;;;;;18.25;10.25;;;;;;;6.93;92.02;99129.66;5016908;28;20100;-95
2022/03/29 01:47:22;;;;;;;20.27;10.25;;;;;;;6.65;92.68;99084.91;5017706;28;20570;-95
2022/03/29 01:49:49;;;;;;;22.15;11.30;;;;;;;6.79;93.21;99117.44;5017317;28;20042;-96
2022/03/29 01:52:15;;;;;;;19.50;9.88;;;;;;;6.66;92.38;99078.75;5016656;28;20042;-95
2022/03/29 01:54:42;;;;;;;20.20;10.65;;;;;;;6.59;93.07;99077.00;5016739;28;20088;-94
2022/03/29 01:57:09;;;;;;;21.95;10.88;;;;;;;6.57;93.09;99082.31;5016139;28;20053;-94
2022/03/29 02:02:44;;;;;;;17.73;9.57;;;;;;;6.58;94.36;99083.19;5157199;27;20115;-96
2022/03/29 02:05:10;;;;;;;20.23;10.43;;;;;;;6.63;93.68;99091.97;5155821;27;20074;-95
2022/03/29 02:07:36;;;;;;;22.42;9.68;;;;;;;6.57;93.79;99078.78;5156363;27;20039;-94
2022/03/29 02:10:05;;;;;;;16.05;9.90;;;;;;;6.57;94.09;99082.31;5156943;27;20365;-95
2022/03/29 02:12:31;;;;;;;22.40;11.48;;;;;;;6.40;94.82;99062.16;5156740;27;20043;-96
2022/03/29 02:14:56;;;;;;;20.20;10.18;;;;;;;6.31;96.05;99063.97;5156253;27;20054;-94
2022/03/29 02:17:22;;;;;;;18.70;10.63;;;;;;;6.30;96.56;99056.06;5156753;27;20042;-95
2022/03/29 02:19:50;;;;;;;21.42;9.82;;;;;;;6.35;95.91;99056.91;5156338;27;20043;-95
2022/03/29 02:22:16;;;;;;;19.85;10.48;;;;;;;6.31;96.42;99048.13;5156115;27;20035;-95
2022/03/29 02:24:42;;;;;;;21.25;10.30;;;;;;;6.36;95.98;99043.69;5156094;27;20043;-95
2022/03/29 02:27:08;;;;;;;18.75;10.57;;;;;;;6.34;95.36;99042.81;5155678;27;20039;-94
2022/03/29 02:29:34;;;;;;;19.85;10.32;;;;;;;6.42;95.51;99063.94;5155764;27;20100;-94
2022/03/29 02:32:00;;;;;;;20.42;10.30;;;;;;;6.26;97.57;99036.69;5156468;27;20103;-96
2022/03/29 02:34:26;;;;;;;21.65;10.80;;;;;;;6.17;97.10;99029.69;5156223;27;20043;-95
2022/03/29 02:36:54;;;;;;;19.98;10.65;;;;;;;6.04;98.90;99017.44;5156525;27;20076;-95
2022/03/29 02:39:21;;;;;;;21.33;11.18;;;;;;;6.19;98.79;99039.41;5156318;27;20050;-95
2022/03/29 02:41:46;;;;;;;21.20;10.05;;;;;;;6.08;97.18;99023.59;5156081;27;20112;-95
2022/03/29 02:44:12;;;;;;;20.75;10.68;;;;;;;6.13;97.53;99020.03;5156189;27;20059;-94
2022/03/29 02:46:38;;;;;;;18.90;9.20;;;;;;;6.09;96.56;99010.38;5155177;27;20130;-94
2022/03/29 02:49:04;;;;;;;21.25;10.13;;;;;;;6.07;96.73;99009.53;5155956;27;20396;-95
2022/03/29 02:51:30;;;;;;;20.98;10.00;;;;;;;6.05;98.10;99003.38;5155834;27;20089;-95
2022/03/29 02:53:57;;;;;;;18.77;11.63;;;;;;;6.09;99.04;98998.94;5154577;27;20438;-94
2022/03/29 02:56:23;;;;;;;23.13;11.20;;;;;;;6.16;98.39;98998.06;5156356;27;20125;-94
2022/03/29 02:58:49;;;;;;;24.55;11.27;;;;;;;6.05;98.01;98976.97;5154788;27;20082;-94
2022/03/29 03:01:15;;;;;;;20.83;10.70;;;;;;;6.06;97.23;98983.13;5154000;27;20519;-94
2022/03/29 03:03:41;;;;;;;22.13;12.10;;;;;;;6.04;96.01;98982.25;5156999;27;20043;-94
2022/03/29 03:06:07;;;;;;;19.98;10.93;;;;;;;6.00;95.88;98968.19;5156400;27;20043;-95
2022/03/29 03:08:33;;;;;;;26.80;11.70;;;;;;;5.97;96.89;98970.88;5156247;27;20070;-95
2022/03/29 03:11:00;;;;;;;23.48;11.23;;;;;;;6.06;96.76;98996.34;5155071;27;20492;-95
2022/03/29 03:13:26;;;;;;;19.83;10.60;;;;;;;5.84;95.71;98962.09;5144646;27;20039;-93
2022/03/29 03:15:52;;;;;;;24.63;11.48;;;;;;;5.84;97.36;98971.78;5142775;27;20042;-94
2022/03/29 03:18:18;;;;;;;35.33;12.38;;;;;;;5.81;98.63;98961.22;5142945;27;20035;-95
2022/03/29 03:20:44;;;;;;;22.02;11.82;;;;;;;5.82;98.57;98958.59;5143259;27;20493;-94
2022/03/29 03:23:11;;;;;;;25.00;12.13;;;;;;;5.82;97.30;98961.22;5144023;27;20166;-94
2022/03/29 03:25:38;;;;;;;31.58;13.40;;;;;;;5.84;94.75;98967.38;5142019;27;20047;-93
2022/03/29 03:28:07;;;;;;;32.13;14.68;;;;;;;5.89;91.70;98985.81;5143503;27;20127;-95
2022/03/29 03:30:33;;;;;;;27.83;15.03;;;;;;;5.82;89.26;98974.41;5145468;27;20104;-95
2022/03/29 03:33:01;;;;;;;25.77;13.30;;;;;;;5.68;95.34;98950.75;5142547;27;20116;-95
2022/03/29 03:35:27;;;;;;;25.63;13.68;;;;;;;5.82;96.54;98984.97;5141991;27;20051;-95
2022/03/29 03:37:53;;;;;;;25.05;12.45;;;;;;;5.63;96.64;98951.63;5145692;27;20069;-95
2022/03/29 03:40:19;;;;;;;33.47;14.15;;;;;;;5.60;96.52;98954.31;5143193;27;20134;-96
2022/03/29 03:42:45;;;;;;;26.02;13.32;;;;;;;5.54;96.41;98948.16;5143356;27;20373;-92
2022/03/29 03:45:12;;;;;;;30.85;13.65;;;;;;;5.56;97.92;98953.44;5143521;27;20357;-94
2022/03/29 03:47:38;;;;;;;34.80;14.00;;;;;;;5.59;96.45;98957.81;5143709;27;20043;-94
2022/03/29 03:50:06;;;;;;;33.00;14.90;;;;;;;5.56;98.15;98953.44;5141950;27;20089;-95
2022/03/29 03:52:32;;;;;;;28.98;13.75;;;;;;;5.51;97.79;98960.50;5140964;27;20046;-92
2022/03/29 03:54:57;;;;;;;30.60;13.63;;;;;;;5.49;97.33;98954.34;5140090;27;20504;-94
2022/03/29 03:57:23;;;;;;;35.25;15.68;;;;;;;5.37;98.51;98949.09;5140506;27;20047;-94
2022/03/29 03:59:51;;;;;;;38.97;15.52;;;;;;;5.55;99.70;98951.66;5141145;27;20046;-94
2022/03/29 04:02:19;;;;;;;35.70;14.15;;;;;;;5.44;98.33;98945.56;5142155;27;20062;-95
2022/03/29 04:04:45;;;;;;;29.42;14.55;;;;;;;5.49;99.23;98954.34;5140550;27;20039;-94
2022/03/29 04:07:11;;;;;;;38.83;16.52;;;;;;;5.39;100.00;98948.22;5140649;27;20514;-95
2022/03/29 04:09:38;;;;;;;36.33;16.25;;;;;;;5.44;99.21;98950.81;5141305;27;20400;-95
2022/03/29 04:12:05;;;;;;;45.47;17.02;;;;;;;5.35;99.64;98938.53;5141196;27;20488;-94
2022/03/29 04:14:31;;;;;;;40.97;17.13;;;;;;;5.38;100.00;98945.56;5140894;27;20090;-95
2022/03/29 04:16:57;;;;;;;40.75;17.02;;;;;;;5.34;100.00;98931.53;5140396;27;20070;-95
2022/03/29 04:19:25;;;;;;;38.92;17.35;;;;;;;5.39;100.00;98932.38;5140740;27;20051;-93
2022/03/29 04:21:50;;;;;;;40.20;17.38;;;;;;;5.49;100.00;98956.97;5140378;27;20039;-93
2022/03/29 04:24:17;;;;;;;40.63;16.15;;;;;;;5.32;100.00;98928.88;5139737;27;20039;-94
2022/03/29 04:26:43;;;;;;;47.72;16.90;;;;;;;5.53;100.00;98961.34;5140954;27;20130;-94
2022/03/29 04:29:09;;;;;;;37.35;15.95;;;;;;;5.45;100.00;98939.41;5141798;27;20088;-95
2022/03/29 04:31:35;;;;;;;34.85;16.20;;;;;;;5.37;99.86;98928.00;5141975;27;20047;-96
2022/03/29 04:34:02;;;;;;;44.30;19.40;;;;;;;5.42;99.80;98936.75;5140775;27;20492;-93
2022/03/29 04:36:30;;;;;;;53.03;20.52;;;;;;;5.48;93.70;98960.47;5138948;27;20047;-93
2022/03/29 04:38:57;;;;;;;51.53;20.35;;;;;;;5.35;92.32;98955.25;5138969;27;20061;-94
2022/03/29 04:41:23;;;;;;;49.85;19.95;;;;;;;5.14;91.69;98939.50;5139229;27;20043;-94
2022/03/29 04:43:49;;;;;;;52.88;21.30;;;;;;;5.00;91.45;98936.00;5139327;27;20050;-95
2022/03/29 04:46:15;;;;;;;50.33;21.35;;;;;;;4.98;93.65;98962.38;5139031;27;20103;-94
2022/03/29 04:48:41;;;;;;;41.42;18.60;;;;;;;4.92;94.58;98949.19;5139964;27;20047;-95
2022/03/29 04:51:07;;;;;;;48.97;19.08;;;;;;;5.02;96.60;98964.13;5139637;27;20247;-94
2022/03/29 04:53:38;;;;;;;42.22;17.05;;;;;;;5.00;96.95;98962.38;5140277;27;20035;-93
2022/03/29 04:56:05;;;;;;;45.25;17.67;;;;;;;5.07;97.27;98962.34;5139804;27;20043;-95
2022/03/29 04:58:31;;;;;;;41.35;17.40;;;;;;;5.03;97.18;98957.97;5139638;27;20043;-94
2022/03/29 05:00:58;;;;;;;46.50;19.58;;;;;;;5.20;97.73;98979.00;5138661;27;20051;-95
2022/03/29 05:03:24;;;;;;;51.83;19.92;;;;;;;5.10;96.76;98962.34;5139751;27;20053;-96
2022/03/29 05:05:50;;;;;;;52.00;21.80;;;;;;;5.09;94.59;98957.94;5141352;27;20492;-96
2022/03/29 05:08:16;;;;;;;59.28;22.45;;;;;;;5.18;92.25;98964.09;5140684;27;20078;-96
2022/03/29 05:10:44;;;;;;;80.82;31.77;;;;;;;5.13;91.64;98949.16;5139965;27;20369;-95
2022/03/29 05:13:10;;;;;;;62.75;24.10;;;;;;;5.10;90.99;98948.31;5140792;27;20046;-96
2022/03/29 05:15:36;;;;;;;54.17;21.10;;;;;;;5.23;93.39;98950.03;5142573;27;20082;-96
2022/03/29 05:18:02;;;;;;;47.72;20.70;;;;;;;5.29;95.36;98950.00;5140537;27;20065;-95
2022/03/29 05:20:28;;;;;;;50.85;20.95;;;;;;;5.40;95.60;98957.00;5140859;27;20043;-95
2022/03/29 05:22:55;;;;;;;53.90;20.50;;;;;;;5.59;95.35;98976.28;5140451;27;20188;-96
2022/03/29 05:25:22;;;;;;;50.05;20.58;;;;;;;5.53;95.33;98956.06;5142523;27;20058;-96
2022/03/29 05:27:51;;;;;;;53.75;21.85;;;;;;;5.59;94.01;98950.75;5145210;27;20035;-95
2022/03/29 05:30:18;;;;;;;74.82;23.60;;;;;;;5.63;93.08;98949.00;5142424;27;20080;-96
2022/03/29 05:32:44;;;;;;;65.72;23.33;;;;;;;5.66;91.76;98954.25;5138381;27;20050;-93
2022/03/29 05:35:11;;;;;;;54.50;22.23;;;;;;;5.68;90.06;98955.13;5138335;27;20047;-93
2022/03/29 05:37:38;;;;;;;57.10;22.52;;;;;;;5.70;89.48;98948.06;5138297;27;20035;-95
2022/03/29 05:40:07;;;;;;;57.75;23.48;;;;;;;5.76;88.89;98948.91;5137802;27;20553;-94
2022/03/29 05:42:37;;;;;;;63.88;22.42;;;;;;;5.81;88.19;98951.53;5140747;27;20519;-94
2022/03/29 05:45:05;;;;;;;50.85;21.17;;;;;;;5.84;87.32;98956.81;5136977;27;20039;-93
2022/03/29 05:50:43;;;;;;;57.17;23.10;;;;;;;5.85;87.41;98947.13;5115316;27;20878;-94
2022/03/29 05:53:09;;;;;;;57.45;24.75;;;;;;;5.95;86.84;98957.66;5113624;28;20496;-95
2022/03/29 05:55:35;;;;;;;57.58;23.13;;;;;;;5.92;87.68;98947.09;5113349;28;20127;-95
2022/03/29 05:58:01;;;;;;;54.83;21.90;;;;;;;6.08;89.21;98961.13;5113712;28;20040;-95
2022/03/29 06:00:29;;;;;;;54.50;21.98;;;;;;;6.13;89.75;98950.53;5113674;28;20050;-95
2022/03/29 06:02:55;;;;;;;48.90;21.63;;;;;;;6.22;88.46;98957.50;5114618;28;20040;-95
2022/03/29 06:05:21;;;;;;;59.92;22.38;;;;;;;6.34;88.07;98953.03;5117782;28;20413;-94
2022/03/29 06:07:50;;;;;;;53.63;22.27;;;;;;;6.48;87.69;98958.19;5123106;28;20103;-92
2022/03/29 06:10:16;;;;;;;51.60;22.70;;;;;;;6.57;84.46;98944.94;5122707;28;20058;-94
2022/03/29 06:12:45;;;;;;;50.78;22.52;;;;;;;6.65;81.37;98950.13;5122789;28;20040;-94
2022/03/29 06:15:11;;;;;;;51.23;22.80;;;;;;;6.76;79.83;98940.34;5121767;28;20046;-94
2022/03/29 06:17:38;;;;;;;60.17;22.83;;;;;;;6.87;78.93;98945.53;5122228;28;20268;-94
2022/03/29 06:20:06;;;;;;;61.25;23.08;;;;;;;7.03;79.11;98951.56;5122428;28;20036;-94
2022/03/29 06:22:36;;;;;;;53.88;23.80;;;;;;;7.01;78.46;98957.78;5121887;28;20486;-94
2022/03/29 06:25:04;;;;;;;56.03;23.73;;;;;;;7.22;78.78;98965.44;5121893;28;20051;-94
2022/03/29 06:27:30;;;;;;;58.67;24.00;;;;;;;7.19;78.66;98958.44;5122997;28;20055;-93
2022/03/29 06:29:57;;;;;;;60.25;24.48;;;;;;;7.34;78.69;98954.75;5122792;28;20045;-94
2022/03/29 06:32:23;;;;;;;70.90;24.38;;;;;;;7.46;77.40;98956.41;5118335;28;20083;-95
2022/03/29 06:34:49;;;;;;;55.00;23.73;;;;;;;7.56;76.59;98955.38;5117653;28;20044;-94
2022/03/29 06:37:15;;;;;;;52.33;23.88;;;;;;;7.69;77.04;98965.81;5117438;28;20055;-95
2022/03/29 06:39:41;;;;;;;52.78;23.90;;;;;;;7.69;76.45;98953.47;5117515;28;20058;-94
2022/03/29 06:42:09;;;;;;;54.42;22.02;;;;;;;7.72;75.54;98952.53;5117731;28;20040;-95
2022/03/29 06:44:35;;;;;;;48.38;22.27;;;;;;;7.74;76.04;98946.34;5117840;28;20047;-95
2022/03/29 06:47:01;;;;;;;47.33;21.80;;;;;;;7.89;76.08;98971.72;5117702;28;20539;-94
2022/03/29 06:49:27;;;;;;;51.70;21.85;;;;;;;8.03;76.07;98980.38;5117598;28;20131;-96
2022/03/29 06:51:54;;;;;;;49.85;21.83;;;;;;;8.01;76.58;98952.16;5117904;28;20071;-95
2022/03/29 06:54:20;;;;;;;59.50;22.85;;;;;;;8.24;76.29;98970.41;5117349;28;20047;-95
2022/03/29 06:56:46;;;;;;;46.30;22.08;;;;;;;8.32;75.51;98963.19;5117321;28;20040;-94
2022/03/29 06:59:14;;;;;;;49.20;23.13;;;;;;;8.39;73.20;98956.91;5117259;28;20043;-95
2022/03/29 07:01:40;;;;;;;48.05;21.85;;;;;;;8.40;72.83;98950.75;5106178;28;20101;-95
2022/03/29 07:04:07;;;;;;;54.25;22.65;;;;;;;8.43;71.98;98941.88;5103579;28;20044;-95
2022/03/29 07:06:33;;;;;;;51.35;22.38;;;;;;;8.68;71.92;98939.69;5103201;28;20104;-94
2022/03/29 07:11:58;;;;;;;51.05;22.45;;;;;;;9.17;69.81;98925.59;5139433;27;20383;-93
2022/03/29 07:14:24;;;;;;;44.00;19.85;;;;;;;9.40;69.37;98916.28;5139430;28;20047;-95
2022/03/29 07:16:50;;;;;;;44.33;21.25;;;;;;;9.50;70.26;98911.66;5139858;28;20069;-94
2022/03/29 07:19:17;;;;;;;50.80;22.75;;;;;;;9.38;70.62;98918.97;5140826;28;20050;-95
2022/03/29 07:21:43;;;;;;;41.15;24.23;;;;;;;9.21;72.13;98924.59;5139777;28;20071;-95
2022/03/29 07:24:11;;;;;;;43.40;22.75;;;;;;;9.31;70.38;98941.22;5141516;28;20054;-95
2022/03/29 07:26:37;;;;;;;36.92;19.45;;;;;;;9.36;71.64;98935.81;5141286;28;20047;-95
2022/03/29 07:29:04;;;;;;;44.28;22.20;;;;;;;9.31;72.70;98941.22;5138099;28;20639;-92
2022/03/29 07:31:30;;;;;;;39.13;22.23;;;;;;;9.43;71.85;98948.06;5138508;28;20047;-94
2022/03/29 07:33:56;;;;;;;47.17;22.85;;;;;;;9.59;69.95;98938.03;5139402;28;20043;-93
2022/03/29 07:36:22;;;;;;;43.83;22.38;;;;;;;9.58;70.28;98930.97;5140079;28;20575;-95
2022/03/29 07:38:49;;;;;;;42.90;22.05;;;;;;;9.93;69.82;98919.59;5139337;28;20061;-94
2022/03/29 07:41:15;;;;;;;40.28;21.67;;;;;;;10.18;67.34;98919.03;5140184;28;20039;-94
2022/03/29 07:43:42;;;;;;;48.25;23.15;;;;;;;10.36;67.32;98917.75;5139626;28;20051;-94
2022/03/29 07:46:09;;;;;;;43.85;21.48;;;;;;;10.40;67.11;98928.28;5140008;28;20043;-94
2022/03/29 07:48:36;;;;;;;45.58;21.17;;;;;;;10.48;66.49;98910.38;5139450;28;20068;-94
2022/03/29 07:51:02;;;;;;;49.67;22.00;;;;;;;10.51;66.27;98911.22;5139654;28;20047;-96
2022/03/29 07:53:29;;;;;;;43.88;21.35;;;;;;;10.65;65.51;98909.97;5139543;28;20046;-95
2022/03/29 07:55:55;;;;;;;42.42;21.40;;;;;;;10.90;64.26;98906.66;5140368;28;20565;-94
2022/03/29 07:58:21;;;;;;;40.97;22.23;;;;;;;11.05;64.07;98913.38;5139923;28;20039;-93
2022/03/29 08:00:51;;;;;;;35.85;19.33;;;;;;;11.29;63.33;98910.03;5139519;28;20047;-95
2022/03/29 08:03:20;;;;;;;;;;;;;;;11.71;62.11;98948.81;5141362;28;20081;-94
2022/03/29 08:05:47;;;;;;;;;;;;;;;11.88;61.15;98951.91;5142485;28;20383;-95
2022/03/29 08:08:14;;;;;;;34.47;17.30;;;;;;;11.86;61.04;98947.47;5141780;28;19987;-95
2022/03/29 08:10:42;;;;;;;32.25;17.35;;;;;;;11.59;61.51;98919.88;5140677;28;20056;-96
2022/03/29 08:13:10;;;;;;;36.38;17.95;;;;;;;11.85;61.54;98909.31;5141790;28;20047;-95
2022/03/29 08:15:36;;;;;;;29.27;16.90;;;;;;;12.18;61.04;98927.03;5140656;28;20043;-95
2022/03/29 08:18:02;;;;;;;32.55;17.90;;;;;;;12.45;59.47;98931.50;5141251;28;20035;-94
2022/03/29 08:20:30;;;;;;;31.35;17.02;;;;;;;12.52;59.44;98922.34;5134750;28;20043;-94
2022/03/29 08:23:00;;;;;;;32.90;17.35;;;;;;;12.68;58.90;98927.19;5123705;28;20044;-95
2022/03/29 08:25:29;;;;;;;32.95;17.15;;;;;;;12.73;58.81;98915.44;5133799;28;20044;-96
2022/03/29 08:27:56;;;;;;;29.75;17.33;;;;;;;12.93;57.93;98911.25;5126728;28;20071;-96
2022/03/29 08:30:23;;;;;;;41.42;16.58;;;;;;;12.84;57.97;98909.75;5125664;28;20040;-96
2022/03/29 08:32:49;;;;;;;25.92;16.13;;;;;;;12.87;58.94;98916.78;5126855;28;20048;-95
2022/03/29 08:35:15;;;;;;;29.27;16.63;;;;;;;13.08;58.55;98937.41;5124852;28;20073;-94
2022/03/29 08:37:43;;;;;;;30.38;15.73;;;;;;;13.05;58.07;98916.13;5125003;28;20134;-95
2022/03/29 08:40:12;;;;;;;29.65;14.90;;;;;;;13.15;57.63;98906.00;5126038;28;20032;-95
2022/03/29 08:42:39;;;;;;;28.08;16.30;;;;;;;13.30;57.41;98902.81;5126617;28;20075;-94
2022/03/29 08:45:06;;;;;;;29.95;16.40;;;;;;;13.56;56.47;98914.38;5123552;28;20074;-94
2022/03/29 08:47:33;;;;;;;26.63;15.05;;;;;;;13.49;56.51;98928.88;5122869;28;20055;-93
2022/03/29 08:49:59;;;;;;;26.70;15.02;;;;;;;13.19;56.73;98917.47;5124020;28;20442;-92
2022/03/29 08:52:25;;;;;;;21.55;13.52;;;;;;;13.07;57.86;98897.41;5123673;28;20047;-95
2022/03/29 08:54:52;;;;;;;26.17;13.07;;;;;;;13.27;56.90;98889.56;5123528;28;20040;-94
2022/03/29 08:57:19;;;;;;;23.42;13.00;;;;;;;13.57;55.58;98902.75;5123021;28;20051;-95
2022/03/29 08:59:45;;;;;;;19.52;11.68;;;;;;;13.32;56.61;98892.97;5122993;28;20044;-95
2022/03/29 09:02:12;;;;;;;25.20;13.55;;;;;;;13.69;55.96;98891.59;5123267;28;20130;-93
2022/03/29 09:04:38;;;;;;;21.02;12.80;;;;;;;13.91;55.43;98893.44;5122724;28;20092;-94
2022/03/29 09:07:04;;;;;;;25.98;13.05;;;;;;;13.97;54.01;98877.19;5123567;28;20106;-95
2022/03/29 09:09:31;;;;;;;23.45;12.57;;;;;;;14.17;53.73;98877.25;5125013;28;20040;-95
2022/03/29 09:12:08;;;;;;;21.75;11.77;;;;;;;13.91;54.79;98874.75;5123750;28;20062;-94
2022/03/29 09:14:49;;;;;;;15.90;9.65;;;;;;;13.90;53.91;98894.38;5123269;28;20044;-95
2022/03/29 09:17:26;;;;;;;17.05;9.98;;;;;;;14.12;53.20;98865.00;5122439;28;20035;-95
2022/03/29 09:19:52;;;;;;;20.92;11.55;;;;;;;14.60;52.30;98884.50;5122973;28;20079;-95
2022/03/29 09:22:34;;;;;;;17.02;9.75;;;;;;;14.35;52.06;98872.09;5124230;28;20047;-95
2022/03/29 09:25:01;;;;;;;18.00;9.57;;;;;;;14.04;52.29;98881.34;5123864;28;20237;-94
2022/03/29 09:27:28;;;;;;;18.48;9.88;;;;;;;14.11;53.90;98871.28;5124731;28;20107;-94
2022/03/29 09:30:06;;;;;;;19.15;11.18;;;;;;;14.36;53.54;98893.44;5122917;28;20139;-94
2022/03/29 09:32:32;;;;;;;19.10;10.38;;;;;;;14.62;52.53;98899.56;5122526;28;20131;-94
2022/03/29 09:35:04;;;;;;;22.20;10.52;;;;;;;14.70;52.00;98892.09;5121329;28;20059;-93
2022/03/29 09:37:34;;;;;;;16.02;9.52;;;;;;;14.97;51.74;98882.00;5122543;27;20374;-94
2022/03/29 09:40:00;;;;;;;18.50;9.90;;;;;;;14.81;51.72;98869.31;5121953;28;20040;-96
2022/03/29 09:42:27;;;;;;;16.88;9.98;;;;;;;14.83;51.67;98864.78;5121891;28;20055;-94
2022/03/29 09:44:56;;;;;;;17.63;9.50;;;;;;;15.19;50.70;98865.84;5122806;28;20476;-96
2022/03/29 09:47:23;;;;;;;14.95;8.77;;;;;;;15.69;49.50;98882.41;5122595;28;20113;-94
2022/03/29 09:49:54;;;;;;;16.98;9.40;;;;;;;15.74;47.98;98849.13;5121734;28;20100;-94
2022/03/29 09:52:22;;;;;;;18.77;9.30;;;;;;;16.01;46.30;98851.44;5122607;28;20056;-94
2022/03/29 09:55:07;;;;;;;17.38;9.57;;;;;;;16.25;46.05;98862.78;5123243;28;20131;-94
2022/03/29 09:57:34;;;;;;;13.85;7.78;;;;;;;15.55;45.88;98846.38;5121239;28;20717;-95
2022/03/29 10:03:08;;;;;;;16.60;8.27;;;;;;;15.28;46.19;98850.31;5112907;27;20370;-95
2022/03/29 10:05:37;;;;;;;17.02;7.97;;;;;;;15.37;46.32;98823.97;5097096;28;20056;-94
2022/03/29 10:11:07;;;;;;;14.20;7.50;;;;;;;16.05;45.07;98815.47;5180452;27;20364;-94
2022/03/29 10:13:32;;;;;;;;;;;;;;;16.00;43.73;98833.59;5180700;27;20126;-95
2022/03/29 10:16:00;;;;;;;16.48;7.25;;;;;;;16.01;44.63;98820.09;5176751;27;20376;-94
2022/03/29 10:18:28;;;;;;;13.15;7.72;;;;;;;16.01;44.93;98809.38;5180336;27;20129;-94
2022/03/29 10:20:56;;;;;;;11.32;6.90;;;;;;;15.95;41.81;98790.91;5180000;27;20117;-94
2022/03/29 10:23:24;;;;;;;13.27;7.47;;;;;;;16.15;43.77;98811.38;5179945;27;20049;-93
2022/03/29 10:25:51;;;;;;;16.77;8.52;;;;;;;16.22;44.64;98791.38;5178478;27;20079;-93
2022/03/29 10:28:21;;;;;;;12.70;7.55;;;;;;;16.50;42.01;98808.75;5158970;27;20049;-95
2022/03/29 10:30:47;;;;;;;17.35;8.35;;;;;;;16.25;44.22;98794.84;5166844;27;20043;-93
2022/03/29 10:33:18;;;;;;;14.68;8.60;;;;;;;16.47;43.86;98798.19;5158864;27;20035;-94
2022/03/29 10:36:05;;;;;;;15.02;9.15;;;;;;;16.69;43.93;98767.53;5159758;27;20053;-96
2022/03/29 10:39:01;;;;;;;18.33;9.70;;;;;;;17.09;43.34;98795.91;5159808;27;20054;-94
2022/03/29 10:41:49;;;;;;;15.77;8.45;;;;;;;16.68;41.78;98782.78;5121076;28;20063;-94
2022/03/29 10:44:17;;;;;;;15.65;8.00;;;;;;;16.93;42.03;98752.84;5115370;28;20040;-94
2022/03/29 10:46:46;;;;;;;16.20;7.97;;;;;;;17.32;40.77;98761.53;5117785;28;20046;-94
2022/03/29 10:49:20;;;;;;;12.02;7.13;;;;;;;17.36;39.39;98773.84;5123162;28;20040;-96
2022/03/29 10:51:47;;;;;;;14.63;8.25;;;;;;;17.23;39.92;98731.50;5121376;28;20501;-95
2022/03/29 10:54:28;;;;;;;13.43;8.10;;;;;;;17.58;36.39;98752.88;5123461;28;20035;-95
2022/03/29 10:56:59;;;;;;;13.93;7.32;;;;;;;17.55;34.72;98745.00;5136209;28;20069;-95
2022/03/29 10:59:27;;;;;;;14.70;7.03;;;;;;;17.73;36.94;98740.41;5123116;28;20122;-94
2022/03/29 11:02:12;;;;;;;15.93;8.40;;;;;;;17.91;36.23;98749.25;5136639;28;20035;-93
2022/03/29 11:05:06;;;;;;;11.68;7.55;;;;;;;17.78;35.61;98716.81;5129287;28;20036;-95
2022/03/29 11:07:33;;;;;;;13.82;7.60;;;;;;;17.70;34.16;98713.69;5117395;28;20134;-94
2022/03/29 11:10:13;;;;;;;14.93;7.72;;;;;;;17.69;35.67;98711.94;5117525;28;20062;-95
2022/03/29 11:12:45;;;;;;;16.33;8.20;;;;;;;17.82;35.92;98698.69;5116947;28;20119;-93
2022/03/29 11:15:47;;;;;;;13.75;7.18;;;;;;;18.14;35.40;98720.16;5139946;27;20069;-93
2022/03/29 11:18:49;;;;;;;14.35;7.70;;;;;;;18.25;35.30;98715.88;5177380;27;20088;-91
2022/03/29 11:21:49;;;;;;;16.52;7.32;;;;;;;18.38;34.55;98712.47;5151068;27;20039;-93
2022/03/29 11:24:20;;;;;;;13.85;7.00;;;;;;;18.45;33.54;98692.28;5144894;27;20055;-94
2022/03/29 11:26:56;;;;;;;12.93;7.75;;;;;;;18.38;32.32;98680.16;5144376;27;20047;-94
2022/03/29 11:29:23;;;;;;;13.18;7.10;;;;;;;18.16;32.55;98692.22;5144232;27;20063;-93
2022/03/29 11:31:50;;;;;;;13.70;7.22;;;;;;;18.34;32.06;98673.22;5143896;27;20047;-93
2022/03/29 11:34:16;;;;;;;12.05;7.38;;;;;;;18.37;31.87;98660.44;5145381;27;20035;-94
2022/03/29 11:36:42;;;;;;;12.10;7.63;;;;;;;18.42;32.41;98676.31;5143604;27;20043;-94
2022/03/29 11:39:21;;;;;;;13.77;7.53;;;;;;;17.78;29.11;98654.06;5152127;27;20466;-92
2022/03/29 11:41:47;;;;;;;15.10;7.18;;;;;;;17.65;30.78;98667.34;5143957;27;20047;-93
2022/03/29 11:44:15;;;;;;;15.05;7.40;;;;;;;17.92;29.86;98648.78;5144032;27;20061;-93